Time;durP1;ratioP1;P1;durP2;ratioP2;P2;SDS_P1;SDS_P2;PMS_P1;PMS_P2;Temp;Humidity;BMP_temperature;BMP_pressure;BME280_temperature;BME280_humidity;BME280_pressure;Samples;Min_cycle;Max_cycle;Signal;HPM_P1;HPM_P2
2022/09/24 00:00:42;;;;;;;61.53;5.73;;;;;;;;;;5072242;28;20447;-66
2022/09/24 00:03:09;;;;;;;64.73;5.90;;;;;;;;;;5072788;28;20447;-66
2022/09/24 00:05:38;;;;;;;60.57;5.33;;;;;;;;;;5072354;28;20468;-66
2022/09/24 00:08:05;;;;;;;59.97;4.53;;;;;;;;;;5072094;28;20546;-67
2022/09/24 00:10:37;;;;;;;61.40;5.00;;;;;;;;;;5072185;28;20451;-65
2022/09/24 00:13:06;;;;;;;62.53;4.67;;;;;;;;;;5072130;28;20451;-66
2022/09/24 00:15:36;;;;;;;62.87;5.13;;;;;;;;;;5071986;28;20569;-66
2022/09/24 00:18:04;;;;;;;61.00;5.93;;;;;;;;;;5072017;28;20940;-66
2022/09/24 00:20:31;;;;;;;65.67;4.80;;;;;;;;;;5072067;28;20897;-66
2022/09/24 00:22:59;;;;;;;61.70;4.90;;;;;;;;;;5072239;28;20530;-66
2022/09/24 00:28:12;;;;;;;60.17;5.40;;;;;;;;;;5071980;28;20418;-67
2022/09/24 00:30:39;;;;;;;60.60;4.50;;;;;;;;;;5071750;28;20451;-66
2022/09/24 00:33:07;;;;;;;63.60;5.03;;;;;;;;;;5071886;28;20447;-66
2022/09/24 00:35:34;;;;;;;60.57;6.27;;;;;;;;;;5071649;28;20498;-66
2022/09/24 00:38:01;;;;;;;60.43;5.73;;;;;;;;;;5072065;28;20449;-67
2022/09/24 00:40:28;;;;;;;62.70;5.93;;;;;;;;;;5071710;28;20453;-66
2022/09/24 00:42:55;;;;;;;59.70;4.70;;;;;;;;;;5071343;28;20455;-68
2022/09/24 00:45:25;;;;;;;60.77;5.77;;;;;;;;;;5071590;28;20486;-68
2022/09/24 00:47:52;;;;;;;59.53;4.23;;;;;;;;;;5071903;28;20457;-66
2022/09/24 00:50:21;;;;;;;61.80;5.70;;;;;;;;;;5071605;28;20454;-66
2022/09/24 00:52:51;;;;;;;61.40;5.70;;;;;;;;;;5071870;28;20442;-69
2022/09/24 00:55:19;;;;;;;60.20;5.20;;;;;;;;;;5072032;28;20812;-66
2022/09/24 00:57:48;;;;;;;60.27;5.27;;;;;;;;;;5071654;28;20455;-65
2022/09/24 01:00:16;;;;;;;61.00;4.40;;;;;;;;;;5071130;28;20491;-66
2022/09/24 01:02:47;;;;;;;60.40;4.73;;;;;;;;;;5071847;28;20542;-67
2022/09/24 01:05:14;;;;;;;62.07;5.57;;;;;;;;;;5071525;28;20560;-67
2022/09/24 01:07:41;;;;;;;60.37;4.47;;;;;;;;;;5071749;28;20447;-67
2022/09/24 01:10:09;;;;;;;61.10;4.50;;;;;;;;;;5071219;28;20451;-65
2022/09/24 01:12:40;;;;;;;60.60;5.33;;;;;;;;;;5071560;28;20822;-66
2022/09/24 01:15:11;;;;;;;60.27;4.67;;;;;;;;;;5071414;28;20477;-69
2022/09/24 01:17:41;;;;;;;58.90;3.50;;;;;;;;;;5071507;28;20943;-66
2022/09/24 01:20:28;;;;;;;60.57;5.53;;;;;;;;;;5070990;28;20971;-66
2022/09/24 01:23:03;;;;;;;60.23;4.80;;;;;;;;;;5071600;28;20482;-66
2022/09/24 01:25:35;;;;;;;63.20;5.40;;;;;;;;;;5071234;28;20485;-67
2022/09/24 01:28:08;;;;;;;60.27;4.10;;;;;;;;;;5071567;28;20477;-66
2022/09/24 01:30:39;;;;;;;61.13;4.37;;;;;;;;;;5071214;28;20447;-66
2022/09/24 01:33:09;;;;;;;62.57;5.70;;;;;;;;;;5071412;28;20594;-67
2022/09/24 01:35:38;;;;;;;62.47;5.57;;;;;;;;;;5070958;28;20553;-67
2022/09/24 01:38:07;;;;;;;59.60;4.17;;;;;;;;;;5071209;28;20936;-66
2022/09/24 01:40:35;;;;;;;59.87;4.37;;;;;;;;;;5071327;28;20443;-67
2022/09/24 01:43:04;;;;;;;60.77;4.53;;;;;;;;;;5071391;28;20447;-68
2022/09/24 01:45:32;;;;;;;59.90;4.37;;;;;;;;;;5071301;28;20470;-66
2022/09/24 01:48:01;;;;;;;61.00;4.60;;;;;;;;;;5071278;28;20818;-65
2022/09/24 01:50:30;;;;;;;62.43;5.80;;;;;;;;;;5069170;28;20462;-65
2022/09/24 01:53:00;;;;;;;63.27;4.73;;;;;;;;;;5073369;28;20817;-65
2022/09/24 01:55:30;;;;;;;63.77;5.73;;;;;;;;;;5075004;28;20501;-65
2022/09/24 01:58:00;;;;;;;60.37;4.87;;;;;;;;;;5074916;28;20833;-66
2022/09/24 02:00:27;;;;;;;60.43;4.17;;;;;;;;;;5074432;28;20447;-66
2022/09/24 02:02:57;;;;;;;60.70;4.47;;;;;;;;;;5074632;28;20550;-68
2022/09/24 02:05:29;;;;;;;60.50;4.13;;;;;;;;;;5074731;28;20514;-65
2022/09/24 02:07:59;;;;;;;62.03;4.70;;;;;;;;;;5074682;28;20443;-66
2022/09/24 02:10:29;;;;;;;60.47;4.30;;;;;;;;;;5074420;28;20455;-66
2022/09/24 02:12:59;;;;;;;60.10;3.97;;;;;;;;;;5074704;28;20451;-66
2022/09/24 02:15:28;;;;;;;60.73;5.20;;;;;;;;;;5074223;28;20468;-65
2022/09/24 02:17:56;;;;;;;59.63;4.53;;;;;;;;;;5074708;28;20713;-66
2022/09/24 02:20:25;;;;;;;60.00;4.27;;;;;;;;;;5074381;28;20443;-67
2022/09/24 02:22:55;;;;;;;59.87;3.97;;;;;;;;;;5074799;28;20451;-66
2022/09/24 02:25:26;;;;;;;59.27;3.93;;;;;;;;;;5074409;28;20471;-66
2022/09/24 02:27:53;;;;;;;58.80;3.60;;;;;;;;;;5074192;28;20959;-65
2022/09/24 02:30:20;;;;;;;59.93;4.27;;;;;;;;;;5074129;28;20814;-66
2022/09/24 02:32:48;;;;;;;61.87;5.30;;;;;;;;;;5074506;28;20447;-66
2022/09/24 02:35:14;;;;;;;61.30;4.50;;;;;;;;;;5074016;28;20486;-65
2022/09/24 02:37:43;;;;;;;59.60;4.30;;;;;;;;;;5074301;28;20443;-65
2022/09/24 02:40:12;;;;;;;60.87;5.10;;;;;;;;;;5073773;28;20920;-66
2022/09/24 02:42:41;;;;;;;59.20;3.77;;;;;;;;;;5073927;28;20455;-65
2022/09/24 02:45:08;;;;;;;60.47;4.50;;;;;;;;;;5074087;28;20528;-68
2022/09/24 02:47:35;;;;;;;59.33;3.53;;;;;;;;;;5074052;28;20447;-66
2022/09/24 02:50:02;;;;;;;61.50;6.00;;;;;;;;;;5073606;28;20446;-66
2022/09/24 02:52:30;;;;;;;60.40;4.27;;;;;;;;;;5073922;28;20448;-65
2022/09/24 02:54:57;;;;;;;60.73;4.00;;;;;;;;;;5073648;28;20467;-67
2022/09/24 02:57:25;;;;;;;59.53;4.70;;;;;;;;;;5073682;28;20659;-65
2022/09/24 02:59:52;;;;;;;60.60;4.80;;;;;;;;;;5073301;28;20454;-67
2022/09/24 03:02:19;;;;;;;60.60;3.90;;;;;;;;;;5073773;28;20478;-65
2022/09/24 03:04:47;;;;;;;60.40;4.70;;;;;;;;;;5073007;28;20474;-67
2022/09/24 03:07:14;;;;;;;59.67;3.93;;;;;;;;;;5073580;28;20443;-65
2022/09/24 03:09:41;;;;;;;62.90;5.17;;;;;;;;;;5073230;28;20439;-66
2022/09/24 03:12:08;;;;;;;59.97;4.40;;;;;;;;;;5073660;28;20647;-65
2022/09/24 03:14:37;;;;;;;60.47;4.70;;;;;;;;;;5073404;28;20473;-66
2022/09/24 03:17:04;;;;;;;60.77;4.80;;;;;;;;;;5073351;28;20483;-66
2022/09/24 03:19:31;;;;;;;58.97;3.80;;;;;;;;;;5072818;28;20445;-67
2022/09/24 03:21:58;;;;;;;60.07;4.50;;;;;;;;;;5073213;28;20478;-66
2022/09/24 03:24:25;;;;;;;59.50;4.40;;;;;;;;;;5073291;28;20470;-66
2022/09/24 03:26:52;;;;;;;59.80;4.50;;;;;;;;;;5072818;28;20932;-66
2022/09/24 03:30:58;;;;;;;62.13;4.47;;;;;;;;;;5072814;28;20454;-66
2022/09/24 03:32:07;;;;;;;59.07;4.07;;;;;;;;;;5072794;28;20866;-65
2022/09/24 03:34:34;;;;;;;59.80;3.93;;;;;;;;;;5072643;28;20475;-66
2022/09/24 03:37:01;;;;;;;61.73;5.10;;;;;;;;;;5072988;28;20490;-68
2022/09/24 03:39:28;;;;;;;59.87;4.10;;;;;;;;;;5072443;28;20956;-64
2022/09/24 03:41:55;;;;;;;60.57;4.13;;;;;;;;;;5072992;28;20876;-67
2022/09/24 03:44:22;;;;;;;60.00;4.47;;;;;;;;;;5072748;28;20471;-65
2022/09/24 03:46:50;;;;;;;60.33;4.40;;;;;;;;;;5072634;28;20436;-67
2022/09/24 03:49:18;;;;;;;60.07;5.10;;;;;;;;;;5072322;28;20823;-65
2022/09/24 03:51:45;;;;;;;59.80;4.57;;;;;;;;;;5072789;28;20454;-66
2022/09/24 03:54:12;;;;;;;59.40;4.23;;;;;;;;;;5072627;28;21005;-66
2022/09/24 03:56:39;;;;;;;60.27;4.03;;;;;;;;;;5072613;28;20479;-66
2022/09/24 03:59:06;;;;;;;60.27;5.17;;;;;;;;;;5072207;28;20817;-66
2022/09/24 04:01:36;;;;;;;60.40;4.90;;;;;;;;;;5072350;28;20447;-65
2022/09/24 04:04:03;;;;;;;60.50;4.90;;;;;;;;;;5072323;28;20893;-66
2022/09/24 04:06:31;;;;;;;59.77;4.13;;;;;;;;;;5072681;28;20443;-69
2022/09/24 04:08:59;;;;;;;61.77;4.90;;;;;;;;;;5072083;28;20444;-66
2022/09/24 04:11:26;;;;;;;59.23;3.93;;;;;;;;;;5072515;28;20551;-66
2022/09/24 04:13:53;;;;;;;60.27;4.30;;;;;;;;;;5072142;28;20486;-65
2022/09/24 04:16:20;;;;;;;60.90;5.50;;;;;;;;;;5071341;28;20837;-69
2022/09/24 04:18:47;;;;;;;59.50;4.43;;;;;;;;;;5072182;28;20581;-66
2022/09/24 04:21:14;;;;;;;59.97;4.27;;;;;;;;;;5072246;28;20454;-67
2022/09/24 04:23:43;;;;;;;59.27;3.80;;;;;;;;;;5072039;28;20451;-66
2022/09/24 04:26:11;;;;;;;60.27;4.23;;;;;;;;;;5072108;28;20443;-65
2022/09/24 04:28:38;;;;;;;59.67;4.37;;;;;;;;;;5071600;28;20447;-66
2022/09/24 04:31:05;;;;;;;60.40;4.67;;;;;;;;;;5071908;28;20447;-66
2022/09/24 04:33:32;;;;;;;60.47;4.70;;;;;;;;;;5072284;28;20455;-67
2022/09/24 04:35:59;;;;;;;63.30;5.63;;;;;;;;;;5072043;28;20491;-66
2022/09/24 04:38:26;;;;;;;60.37;5.23;;;;;;;;;;5071808;28;20451;-66
2022/09/24 04:40:55;;;;;;;61.67;6.37;;;;;;;;;;5071737;28;20469;-66
2022/09/24 04:43:22;;;;;;;59.90;4.93;;;;;;;;;;5071769;28;20447;-65
2022/09/24 04:45:50;;;;;;;64.00;5.07;;;;;;;;;;5071981;28;20463;-66
2022/09/24 04:48:17;;;;;;;59.90;3.97;;;;;;;;;;5071818;28;20495;-66
2022/09/24 04:50:45;;;;;;;59.77;4.17;;;;;;;;;;5071743;28;20923;-65
2022/09/24 04:53:12;;;;;;;60.90;4.57;;;;;;;;;;5071870;28;20447;-66
2022/09/24 04:55:40;;;;;;;62.80;4.87;;;;;;;;;;5071683;28;20460;-65
2022/09/24 04:58:08;;;;;;;59.87;4.40;;;;;;;;;;5071548;28;20799;-66
2022/09/24 05:00:36;;;;;;;60.70;5.00;;;;;;;;;;5071657;28;20500;-67
2022/09/24 05:03:03;;;;;;;59.13;4.30;;;;;;;;;;5071783;28;20451;-65
2022/09/24 05:05:31;;;;;;;60.10;4.70;;;;;;;;;;5071659;28;20499;-65
2022/09/24 05:07:58;;;;;;;59.90;4.40;;;;;;;;;;5071533;28;20477;-67
2022/09/24 05:10:25;;;;;;;59.20;4.27;;;;;;;;;;5071195;28;20451;-65
2022/09/24 05:12:52;;;;;;;60.77;4.60;;;;;;;;;;5071553;28;20451;-66
2022/09/24 05:15:21;;;;;;;58.87;3.87;;;;;;;;;;5071586;28;20467;-66
2022/09/24 05:17:48;;;;;;;61.50;5.17;;;;;;;;;;5071477;28;21033;-66
2022/09/24 05:20:16;;;;;;;60.40;4.27;;;;;;;;;;5071228;28;20447;-65
2022/09/24 05:22:43;;;;;;;60.10;4.90;;;;;;;;;;5071475;28;20827;-66
2022/09/24 05:25:11;;;;;;;59.97;4.27;;;;;;;;;;5071243;28;20471;-66
2022/09/24 05:27:37;;;;;;;59.33;4.20;;;;;;;;;;5072902;28;20454;-68
2022/09/24 05:30:06;;;;;;;61.07;4.30;;;;;;;;;;5075175;28;20443;-67
2022/09/24 05:32:34;;;;;;;59.37;4.20;;;;;;;;;;5075377;28;20443;-67
2022/09/24 05:35:01;;;;;;;60.17;4.87;;;;;;;;;;5075079;28;20490;-65
2022/09/24 05:37:28;;;;;;;60.77;4.30;;;;;;;;;;5075079;28;20860;-66
2022/09/24 05:39:56;;;;;;;60.93;4.17;;;;;;;;;;5075196;28;20456;-66
2022/09/24 05:42:23;;;;;;;61.27;5.07;;;;;;;;;;5075388;28;20447;-65
2022/09/24 05:44:50;;;;;;;61.43;5.03;;;;;;;;;;5074757;28;20471;-66
2022/09/24 05:47:17;;;;;;;60.80;4.37;;;;;;;;;;5075154;28;20443;-66
2022/09/24 05:49:46;;;;;;;64.23;6.17;;;;;;;;;;5074876;28;20914;-68
2022/09/24 05:52:13;;;;;;;60.40;5.00;;;;;;;;;;5074795;28;20448;-66
2022/09/24 05:54:40;;;;;;;59.60;4.73;;;;;;;;;;5074750;28;20479;-65
2022/09/24 05:57:07;;;;;;;62.57;5.80;;;;;;;;;;5074874;28;20513;-66
2022/09/24 05:59:34;;;;;;;61.30;5.33;;;;;;;;;;5074564;28;20444;-66
2022/09/24 06:02:02;;;;;;;60.50;5.10;;;;;;;;;;5074827;28;20462;-67
2022/09/24 06:04:30;;;;;;;60.40;4.90;;;;;;;;;;5074638;28;20471;-65
2022/09/24 06:06:58;;;;;;;60.47;4.53;;;;;;;;;;5074525;28;20447;-65
2022/09/24 06:09:25;;;;;;;60.17;4.30;;;;;;;;;;5074218;28;20962;-66
2022/09/24 06:11:53;;;;;;;60.50;4.30;;;;;;;;;;5074765;28;20454;-66
2022/09/24 06:14:20;;;;;;;60.30;4.57;;;;;;;;;;5074437;28;20877;-66
2022/09/24 06:16:47;;;;;;;59.80;4.50;;;;;;;;;;5074399;28;20515;-66
2022/09/24 06:19:14;;;;;;;62.77;5.90;;;;;;;;;;5074017;28;20448;-67
2022/09/24 06:21:41;;;;;;;60.57;4.70;;;;;;;;;;5074363;28;20948;-66
2022/09/24 06:24:10;;;;;;;60.27;4.73;;;;;;;;;;5074536;28;20474;-66
2022/09/24 06:26:38;;;;;;;60.60;4.70;;;;;;;;;;5074367;28;20482;-69
2022/09/24 06:29:05;;;;;;;61.70;5.00;;;;;;;;;;5073805;28;20461;-66
2022/09/24 06:31:33;;;;;;;61.70;4.30;;;;;;;;;;5074174;28;20447;-66
2022/09/24 06:34:01;;;;;;;65.60;4.70;;;;;;;;;;5073932;28;20491;-67
2022/09/24 06:36:28;;;;;;;61.47;5.23;;;;;;;;;;5070739;28;20665;-67
2022/09/24 06:38:57;;;;;;;59.17;3.97;;;;;;;;;;5072501;28;20511;-67
2022/09/24 06:41:25;;;;;;;76.07;6.83;;;;;;;;;;5073965;28;20505;-69
2022/09/24 06:43:54;;;;;;;61.47;6.60;;;;;;;;;;5073845;28;20471;-67
2022/09/24 06:46:21;;;;;;;60.87;4.67;;;;;;;;;;5073804;28;20493;-66
2022/09/24 06:48:49;;;;;;;60.27;4.53;;;;;;;;;;5073234;28;20534;-66
2022/09/24 06:51:16;;;;;;;60.70;5.30;;;;;;;;;;5073729;28;20467;-65
2022/09/24 06:53:43;;;;;;;59.37;4.50;;;;;;;;;;5069967;28;20453;-66
2022/09/24 06:56:10;;;;;;;64.20;5.40;;;;;;;;;;5072363;28;20463;-65
2022/09/24 06:58:38;;;;;;;60.77;5.03;;;;;;;;;;5072107;28;20855;-66
2022/09/24 07:01:06;;;;;;;62.90;5.57;;;;;;;;;;5072390;28;20455;-66
2022/09/24 07:03:35;;;;;;;59.90;4.20;;;;;;;;;;5072309;28;20452;-66
2022/09/24 07:06:03;;;;;;;61.27;5.57;;;;;;;;;;5072653;28;20456;-65
2022/09/24 07:08:30;;;;;;;59.87;4.30;;;;;;;;;;5072532;28;21151;-66
2022/09/24 07:10:57;;;;;;;61.60;5.23;;;;;;;;;;5071955;28;20462;-65
2022/09/24 07:13:24;;;;;;;62.60;5.60;;;;;;;;;;5072782;28;20973;-67
2022/09/24 07:15:53;;;;;;;59.97;4.80;;;;;;;;;;5072871;28;20467;-67
2022/09/24 07:18:20;;;;;;;60.67;4.87;;;;;;;;;;5072785;28;20480;-65
2022/09/24 07:20:52;;;;;;;62.47;5.60;;;;;;;;;;5072396;28;20451;-67
2022/09/24 07:23:20;;;;;;;60.17;4.60;;;;;;;;;;5072802;28;20499;-65
2022/09/24 07:25:47;;;;;;;60.90;5.37;;;;;;;;;;5069965;28;20475;-67
2022/09/24 07:28:15;;;;;;;60.83;5.30;;;;;;;;;;5072293;28;20944;-66
2022/09/24 07:30:42;;;;;;;60.70;5.53;;;;;;;;;;5071860;28;20875;-66
2022/09/24 07:33:11;;;;;;;59.87;4.50;;;;;;;;;;5072044;28;20448;-68
2022/09/24 07:35:38;;;;;;;63.10;5.83;;;;;;;;;;5071634;28;20486;-66
2022/09/24 07:38:06;;;;;;;60.07;4.80;;;;;;;;;;5072144;28;20484;-65
2022/09/24 07:40:34;;;;;;;62.90;5.00;;;;;;;;;;5071778;28;20451;-66
2022/09/24 07:43:01;;;;;;;61.63;5.50;;;;;;;;;;5072311;28;20454;-66
2022/09/24 07:45:29;;;;;;;60.60;5.17;;;;;;;;;;5072323;28;20478;-66
2022/09/24 07:47:58;;;;;;;61.23;5.20;;;;;;;;;;5071853;28;20455;-66
2022/09/24 07:50:27;;;;;;;59.77;4.73;;;;;;;;;;5071110;28;20830;-66
2022/09/24 07:52:54;;;;;;;60.10;4.30;;;;;;;;;;5071789;28;20501;-66
2022/09/24 07:55:21;;;;;;;60.80;5.33;;;;;;;;;;5072012;28;20837;-66
2022/09/24 07:57:48;;;;;;;61.00;5.70;;;;;;;;;;5069906;28;20490;-68
2022/09/24 08:00:17;;;;;;;59.50;4.53;;;;;;;;;;5071176;28;20531;-66
2022/09/24 08:02:44;;;;;;;61.37;5.27;;;;;;;;;;5071827;28;20448;-66
2022/09/24 08:05:11;;;;;;;60.30;4.60;;;;;;;;;;5071634;28;20475;-66
2022/09/24 08:07:40;;;;;;;59.50;4.20;;;;;;;;;;5071341;28;20445;-68
2022/09/24 08:10:07;;;;;;;61.07;5.00;;;;;;;;;;5071310;28;20957;-67
2022/09/24 08:12:35;;;;;;;61.77;4.67;;;;;;;;;;5071066;28;20453;-65
2022/09/24 08:15:02;;;;;;;61.70;5.87;;;;;;;;;;5071535;28;20495;-66
2022/09/24 08:17:29;;;;;;;59.80;4.83;;;;;;;;;;5071678;28;20477;-68
2022/09/24 08:19:56;;;;;;;62.17;5.90;;;;;;;;;;5070932;28;20691;-65
2022/09/24 08:22:23;;;;;;;65.33;5.27;;;;;;;;;;5071980;28;20499;-64
2022/09/24 08:24:52;;;;;;;60.97;5.00;;;;;;;;;;5071969;28;20473;-63
2022/09/24 08:27:20;;;;;;;62.00;5.43;;;;;;;;;;5071720;28;20509;-63
2022/09/24 08:29:47;;;;;;;61.10;4.37;;;;;;;;;;5069195;28;20508;-65
2022/09/24 08:32:14;;;;;;;62.57;5.03;;;;;;;;;;5070773;28;20450;-63
2022/09/24 08:34:41;;;;;;;61.43;6.27;;;;;;;;;;5070878;28;20479;-63
2022/09/24 08:37:09;;;;;;;60.30;4.70;;;;;;;;;;5070915;28;20974;-63
2022/09/24 08:39:36;;;;;;;59.97;4.47;;;;;;;;;;5070589;28;20451;-64
2022/09/24 08:42:06;;;;;;;60.20;4.77;;;;;;;;;;5071215;28;20809;-63
2022/09/24 08:47:31;;;;;;;61.90;5.70;;;;;;;;;;5071523;28;20588;-64
2022/09/24 08:50:08;;;;;;;61.57;5.80;;;;;;;;;;5071314;28;20806;-66
2022/09/24 08:52:42;;;;;;;60.70;4.60;;;;;;;;;;5070590;28;20538;-63
2022/09/24 08:55:12;;;;;;;59.97;4.90;;;;;;;;;;5070871;28;20477;-63
2022/09/24 08:57:43;;;;;;;61.50;5.33;;;;;;;;;;5070935;28;20487;-66
2022/09/24 09:00:14;;;;;;;61.10;4.90;;;;;;;;;;5068681;28;20451;-67
2022/09/24 09:02:44;;;;;;;59.77;5.10;;;;;;;;;;5070571;28;20497;-65
2022/09/24 09:05:16;;;;;;;60.43;4.30;;;;;;;;;;5071443;28;20463;-65
2022/09/24 09:07:46;;;;;;;61.03;4.67;;;;;;;;;;5071263;28;20435;-66
2022/09/24 09:10:15;;;;;;;61.70;5.93;;;;;;;;;;5070926;28;20453;-65
2022/09/24 09:12:45;;;;;;;61.90;5.10;;;;;;;;;;5070380;28;20955;-67
2022/09/24 09:15:15;;;;;;;61.30;5.10;;;;;;;;;;5070701;28;20829;-67
2022/09/24 09:17:45;;;;;;;60.27;4.73;;;;;;;;;;5070764;28;20998;-66
2022/09/24 09:20:15;;;;;;;60.40;5.50;;;;;;;;;;5070370;28;21042;-68
2022/09/24 09:22:44;;;;;;;60.90;5.67;;;;;;;;;;5071029;28;20435;-65
2022/09/24 09:25:16;;;;;;;59.70;4.50;;;;;;;;;;5071182;28;20571;-66
2022/09/24 09:27:45;;;;;;;61.30;5.77;;;;;;;;;;5071035;28;20443;-66
2022/09/24 09:30:14;;;;;;;60.60;4.73;;;;;;;;;;5067804;28;20451;-66
2022/09/24 09:32:48;;;;;;;61.27;5.40;;;;;;;;;;5070353;28;20443;-67
2022/09/24 09:35:18;;;;;;;58.90;3.80;;;;;;;;;;5070319;28;20490;-66
2022/09/24 09:37:49;;;;;;;59.03;4.27;;;;;;;;;;5070819;28;20496;-64
2022/09/24 09:40:26;;;;;;;61.73;4.60;;;;;;;;;;5070323;28;20470;-63
2022/09/24 09:43:01;;;;;;;60.80;4.30;;;;;;;;;;5070614;28;20450;-64
2022/09/24 09:45:32;;;;;;;59.43;4.20;;;;;;;;;;5070893;28;20466;-63
2022/09/24 09:48:01;;;;;;;59.20;3.33;;;;;;;;;;5071017;28;20443;-63
2022/09/24 09:50:30;;;;;;;59.70;4.60;;;;;;;;;;5070845;28;20935;-63
2022/09/24 09:52:58;;;;;;;59.10;4.00;;;;;;;;;;5070116;28;20451;-65
2022/09/24 09:55:25;;;;;;;59.30;3.77;;;;;;;;;;5070403;28;20471;-64
2022/09/24 09:57:53;;;;;;;60.10;4.27;;;;;;;;;;5070325;28;20459;-63
2022/09/24 10:00:29;;;;;;;59.17;3.70;;;;;;;;;;5070151;28;20453;-66
2022/09/24 10:02:56;;;;;;;61.47;4.17;;;;;;;;;;5067729;28;20451;-67
2022/09/24 10:05:27;;;;;;;59.87;3.80;;;;;;;;;;5071239;28;20471;-65
2022/09/24 10:07:56;;;;;;;59.40;3.80;;;;;;;;;;5070765;28;20831;-66
2022/09/24 10:10:24;;;;;;;59.17;3.43;;;;;;;;;;5070900;28;20455;-65
2022/09/24 10:12:54;;;;;;;59.07;3.60;;;;;;;;;;5070257;28;20571;-65
2022/09/24 10:15:23;;;;;;;59.27;3.03;;;;;;;;;;5072101;28;20475;-65
2022/09/24 10:17:52;;;;;;;59.00;3.77;;;;;;;;;;5073730;28;20940;-66
2022/09/24 10:20:22;;;;;;;58.30;2.60;;;;;;;;;;5073383;28;20451;-66
2022/09/24 10:22:50;;;;;;;58.60;3.20;;;;;;;;;;5073554;28;20451;-65
2022/09/24 10:25:19;;;;;;;58.97;3.37;;;;;;;;;;5074211;28;20466;-66
2022/09/24 10:27:47;;;;;;;58.27;2.83;;;;;;;;;;5074136;28;20993;-66
2022/09/24 10:30:34;;;;;;;58.80;3.00;;;;;;;;;;5073768;28;20443;-65
2022/09/24 10:33:03;;;;;;;59.93;3.13;;;;;;;;;;5071147;28;20452;-63
2022/09/24 10:35:32;;;;;;;58.67;2.93;;;;;;;;;;5072474;28;20475;-63
2022/09/24 10:38:00;;;;;;;58.40;2.77;;;;;;;;;;5073380;28;20467;-65
2022/09/24 10:40:29;;;;;;;58.20;3.00;;;;;;;;;;5073296;28;20443;-66
2022/09/24 10:42:57;;;;;;;58.20;2.63;;;;;;;;;;5073329;28;20494;-65
2022/09/24 10:45:27;;;;;;;59.33;3.37;;;;;;;;;;5073569;28;20506;-62
2022/09/24 10:47:58;;;;;;;58.50;3.70;;;;;;;;;;5073466;28;20955;-63
2022/09/24 10:50:32;;;;;;;57.83;2.70;;;;;;;;;;5073493;28;20452;-63
2022/09/24 10:53:01;;;;;;;60.10;3.43;;;;;;;;;;5073214;28;20448;-63
2022/09/24 10:55:38;;;;;;;58.43;3.63;;;;;;;;;;5072387;28;20470;-63
2022/09/24 10:58:10;;;;;;;58.60;2.90;;;;;;;;;;5073003;28;20447;-63
2022/09/24 11:00:39;;;;;;;58.30;3.37;;;;;;;;;;5072725;28;20447;-63
2022/09/24 11:03:23;;;;;;;58.37;3.10;;;;;;;;;;5073164;28;20836;-63
2022/09/24 11:05:54;;;;;;;58.90;3.77;;;;;;;;;;5072361;28;20515;-64
2022/09/24 11:08:25;;;;;;;59.30;3.83;;;;;;;;;;5073911;28;20444;-63
2022/09/24 11:11:04;;;;;;;58.40;3.13;;;;;;;;;;5070651;28;20451;-63
2022/09/24 11:13:33;;;;;;;58.30;2.80;;;;;;;;;;5072952;28;20458;-65
2022/09/24 11:16:16;;;;;;;58.50;3.00;;;;;;;;;;5072065;28;20455;-63
2022/09/24 11:18:51;;;;;;;58.30;3.30;;;;;;;;;;5072066;28;20569;-65
2022/09/24 11:21:28;;;;;;;58.80;3.23;;;;;;;;;;5072295;28;20449;-66
2022/09/24 11:24:13;;;;;;;58.50;3.13;;;;;;;;;;5072553;28;20467;-65
2022/09/24 11:26:51;;;;;;;59.10;3.50;;;;;;;;;;5072652;28;20794;-65
2022/09/24 11:29:36;;;;;;;59.30;3.03;;;;;;;;;;5072539;28;20443;-66
2022/09/24 11:32:08;;;;;;;58.07;2.90;;;;;;;;;;5072736;28;20450;-66
2022/09/24 11:34:43;;;;;;;58.30;3.40;;;;;;;;;;5071918;28;20479;-65
2022/09/24 11:37:23;;;;;;;58.87;3.60;;;;;;;;;;5072096;28;20480;-65
2022/09/24 11:39:57;;;;;;;59.10;3.30;;;;;;;;;;5071751;28;20483;-68
2022/09/24 11:42:27;;;;;;;58.40;3.03;;;;;;;;;;5071750;28;20447;-66
2022/09/24 11:45:15;;;;;;;58.00;3.00;;;;;;;;;;5072636;28;20467;-68
2022/09/24 11:47:57;;;;;;;58.40;2.80;;;;;;;;;;5072898;28;20448;-66
2022/09/24 11:50:29;;;;;;;59.07;3.20;;;;;;;;;;5072474;28;20449;-66
2022/09/24 11:53:02;;;;;;;58.47;2.97;;;;;;;;;;5072776;28;21153;-65
2022/09/24 11:55:33;;;;;;;58.13;2.47;;;;;;;;;;5072860;28;20451;-67
2022/09/24 11:58:05;;;;;;;58.40;3.33;;;;;;;;;;5072538;28;20447;-63
2022/09/24 12:00:34;;;;;;;58.20;2.60;;;;;;;;;;5072354;28;20483;-66
2022/09/24 12:03:03;;;;;;;58.47;3.20;;;;;;;;;;5072382;28;20455;-66
2022/09/24 12:05:32;;;;;;;58.37;3.27;;;;;;;;;;5072362;28;20463;-65
2022/09/24 12:08:04;;;;;;;59.27;3.20;;;;;;;;;;5072532;28;20446;-65
2022/09/24 12:10:34;;;;;;;59.03;3.60;;;;;;;;;;5072185;28;20457;-65
2022/09/24 12:13:05;;;;;;;58.53;3.33;;;;;;;;;;5072450;28;20450;-65
2022/09/24 12:15:38;;;;;;;59.27;3.87;;;;;;;;;;5072178;28;20468;-66
2022/09/24 12:18:07;;;;;;;58.23;2.80;;;;;;;;;;5072478;28;20450;-65
2022/09/24 12:20:40;;;;;;;58.80;3.40;;;;;;;;;;5072005;28;20489;-66
2022/09/24 12:23:13;;;;;;;59.37;4.00;;;;;;;;;;5072427;28;20460;-67
2022/09/24 12:25:43;;;;;;;58.97;3.23;;;;;;;;;;5072193;28;20471;-69
2022/09/24 12:28:12;;;;;;;59.47;3.90;;;;;;;;;;5072282;28;20439;-66
2022/09/24 12:33:30;;;;;;;59.50;3.33;;;;;;;;;;5072111;28;20421;-66
2022/09/24 12:36:03;;;;;;;59.07;3.40;;;;;;;;;;5071991;28;20467;-64
2022/09/24 12:38:33;;;;;;;59.30;3.33;;;;;;;;;;5071015;28;20453;-64
2022/09/24 12:41:10;;;;;;;62.70;4.10;;;;;;;;;;5072187;28;20509;-65
2022/09/24 12:43:40;;;;;;;58.27;3.10;;;;;;;;;;5072006;28;20799;-67
2022/09/24 12:46:08;;;;;;;62.20;3.57;;;;;;;;;;5071984;28;20465;-66
2022/09/24 12:48:38;;;;;;;59.00;3.53;;;;;;;;;;5071496;28;20451;-66
2022/09/24 12:51:08;;;;;;;58.80;3.30;;;;;;;;;;5071978;28;20454;-67
2022/09/24 12:53:38;;;;;;;58.50;3.20;;;;;;;;;;5071730;28;20970;-67
2022/09/24 12:56:06;;;;;;;59.63;4.80;;;;;;;;;;5071844;28;20449;-67
2022/09/24 12:58:37;;;;;;;59.20;3.80;;;;;;;;;;5071375;28;20942;-70
2022/09/24 13:01:12;;;;;;;59.80;4.40;;;;;;;;;;5071880;28;20835;-66
2022/09/24 13:03:40;;;;;;;59.33;3.40;;;;;;;;;;5071914;28;20450;-68
2022/09/24 13:06:21;;;;;;;59.73;4.07;;;;;;;;;;5071833;28;20484;-67
2022/09/24 13:08:50;;;;;;;59.50;4.17;;;;;;;;;;5071508;28;20454;-64
2022/09/24 13:11:26;;;;;;;59.43;3.73;;;;;;;;;;5071622;28;20451;-64
2022/09/24 13:13:59;;;;;;;59.37;3.47;;;;;;;;;;5071473;28;20486;-65
2022/09/24 13:16:26;;;;;;;58.97;3.83;;;;;;;;;;5071770;28;20462;-64
2022/09/24 13:18:54;;;;;;;59.27;3.43;;;;;;;;;;5071215;28;20447;-65
2022/09/24 13:21:23;;;;;;;60.27;4.07;;;;;;;;;;5071706;28;20455;-63
2022/09/24 13:23:52;;;;;;;61.53;4.53;;;;;;;;;;5071614;28;20450;-64
2022/09/24 13:26:29;;;;;;;58.83;3.23;;;;;;;;;;5071438;28;20443;-63
2022/09/24 13:28:58;;;;;;;58.57;3.17;;;;;;;;;;5071337;28;20817;-63
2022/09/24 13:31:35;;;;;;;59.47;3.70;;;;;;;;;;5071463;28;20951;-63
2022/09/24 13:34:05;;;;;;;60.17;3.67;;;;;;;;;;5071285;28;20475;-64
2022/09/24 13:36:37;;;;;;;60.07;3.50;;;;;;;;;;5071357;28;20454;-64
2022/09/24 13:39:08;;;;;;;59.10;3.60;;;;;;;;;;5071360;28;20487;-64
2022/09/24 13:41:41;;;;;;;58.50;3.37;;;;;;;;;;5071359;28;20944;-63
2022/09/24 13:44:14;;;;;;;59.87;3.90;;;;;;;;;;5071418;28;20474;-63
2022/09/24 13:46:44;;;;;;;59.37;3.43;;;;;;;;;;5071369;28;20448;-63
2022/09/24 13:49:15;;;;;;;58.67;3.50;;;;;;;;;;5073086;28;20447;-63
2022/09/24 13:51:44;;;;;;;58.93;3.30;;;;;;;;;;5075535;28;20461;-64
2022/09/24 13:54:15;;;;;;;60.47;4.47;;;;;;;;;;5075134;28;20572;-64
2022/09/24 13:56:42;;;;;;;58.90;3.23;;;;;;;;;;5075203;28;20450;-65
2022/09/24 13:59:12;;;;;;;60.57;3.37;;;;;;;;;;5074601;28;20513;-64
2022/09/24 14:01:40;;;;;;;60.10;4.20;;;;;;;;;;5074590;28;20452;-64
2022/09/24 14:04:14;;;;;;;58.90;3.83;;;;;;;;;;5074674;28;20529;-64
2022/09/24 14:06:42;;;;;;;59.87;3.97;;;;;;;;;;5075217;28;20502;-63
2022/09/24 14:09:16;;;;;;;59.00;4.33;;;;;;;;;;5074510;28;20826;-63
2022/09/24 14:11:50;;;;;;;60.10;4.20;;;;;;;;;;5074765;28;20460;-63
2022/09/24 14:14:19;;;;;;;60.73;4.20;;;;;;;;;;5074479;28;20502;-64
2022/09/24 14:16:47;;;;;;;59.60;3.63;;;;;;;;;;5074851;28;20451;-63
2022/09/24 14:19:15;;;;;;;62.30;4.73;;;;;;;;;;5074017;28;20451;-63
2022/09/24 14:21:43;;;;;;;58.57;3.50;;;;;;;;;;5074591;28;20448;-63
2022/09/24 14:24:15;;;;;;;58.70;3.13;;;;;;;;;;5074445;28;20462;-63
2022/09/24 14:26:47;;;;;;;59.30;3.73;;;;;;;;;;5074404;28;20483;-64
2022/09/24 14:29:16;;;;;;;58.77;3.93;;;;;;;;;;5074254;28;20447;-63
2022/09/24 14:31:45;;;;;;;59.00;4.00;;;;;;;;;;5074262;28;20974;-63
2022/09/24 14:34:21;;;;;;;59.37;3.20;;;;;;;;;;5074313;28;20483;-64
2022/09/24 14:36:49;;;;;;;59.10;3.60;;;;;;;;;;5074275;28;20457;-63
2022/09/24 14:39:17;;;;;;;59.90;3.70;;;;;;;;;;5073695;28;20447;-63
2022/09/24 14:41:45;;;;;;;59.23;3.60;;;;;;;;;;5074325;28;20443;-65
2022/09/24 14:44:16;;;;;;;59.80;3.63;;;;;;;;;;5074127;28;20467;-64
2022/09/24 14:46:47;;;;;;;60.77;4.27;;;;;;;;;;5074156;28;20457;-64
2022/09/24 14:49:19;;;;;;;59.20;3.37;;;;;;;;;;5073752;28;20447;-63
2022/09/24 14:51:51;;;;;;;58.60;3.67;;;;;;;;;;5073904;28;20451;-66